Time;durP1;ratioP1;P1;durP2;ratioP2;P2;SDS_P1;SDS_P2;PMS_P1;PMS_P2;Temp;Humidity;BMP_temperature;BMP_pressure;BME280_temperature;BME280_humidity;BME280_pressure;Samples;Min_cycle;Max_cycle;Signal;HPM_P1;HPM_P2
2022/10/09 00:00:48;;;;;;;23.90;11.30;;;;;;;6.31;nan;94586.06;4877457;29;20055;-57
2022/10/09 00:03:16;;;;;;;15.00;8.20;;;;;;;6.26;nan;94589.09;4877283;29;20063;-58
2022/10/09 00:05:44;;;;;;;17.92;9.10;;;;;;;6.17;nan;94592.91;4877762;29;20053;-58
2022/10/09 00:08:11;;;;;;;15.97;8.70;;;;;;;6.07;nan;94584.59;4876431;29;20426;-59
2022/10/09 00:10:41;;;;;;;21.00;8.75;;;;;;;5.91;nan;94585.53;4877450;29;20498;-59
2022/10/09 00:13:09;;;;;;;19.00;8.82;;;;;;;5.99;nan;94579.06;4876924;29;20063;-59
2022/10/09 00:15:40;;;;;;;22.08;9.88;;;;;;;5.90;nan;94585.94;4877533;29;20045;-58
2022/10/09 00:18:09;;;;;;;17.25;8.23;;;;;;;5.91;nan;94588.25;4881752;29;20045;-59
2022/10/09 00:20:38;;;;;;;14.70;8.43;;;;;;;5.94;nan;94587.53;4877537;29;20045;-60
2022/10/09 00:23:06;;;;;;;12.25;7.40;;;;;;;5.95;nan;94594.56;4876627;29;20057;-60
2022/10/09 00:25:34;;;;;;;14.98;8.02;;;;;;;5.97;nan;94583.31;4877412;29;20057;-60
2022/10/09 00:28:02;;;;;;;15.63;7.15;;;;;;;5.88;nan;94580.06;4876951;29;20162;-59
2022/10/09 00:30:29;;;;;;;12.68;6.57;;;;;;;6.04;nan;94575.25;4877155;29;20055;-61
2022/10/09 00:32:56;;;;;;;11.80;6.30;;;;;;;6.19;nan;94579.69;4876811;29;20048;-58
2022/10/09 00:35:23;;;;;;;13.73;6.97;;;;;;;6.06;nan;94577.59;4877182;29;20041;-58
2022/10/09 00:37:50;;;;;;;11.38;5.75;;;;;;;6.09;nan;94572.16;4876700;29;20071;-58
2022/10/09 00:40:17;;;;;;;11.95;5.90;;;;;;;6.02;nan;94565.84;4877062;29;20130;-59
2022/10/09 00:42:44;;;;;;;12.75;5.90;;;;;;;6.12;nan;94557.03;4876891;29;20048;-62
2022/10/09 00:45:19;;;;;;;11.10;6.07;;;;;;;6.16;nan;94563.31;4876274;29;20409;-60
2022/10/09 00:47:49;;;;;;;16.90;8.02;;;;;;;6.11;nan;94558.19;4876408;29;20410;-59
2022/10/09 00:50:34;;;;;;;11.10;5.90;;;;;;;6.29;nan;94548.28;4876987;29;20490;-58
2022/10/09 00:53:02;;;;;;;11.45;6.78;;;;;;;6.23;nan;94568.06;4876246;29;20406;-59
2022/10/09 00:55:31;;;;;;;10.88;5.53;;;;;;;6.27;nan;94547.84;4876849;29;20063;-60
2022/10/09 00:57:59;;;;;;;13.37;4.90;;;;;;;6.53;nan;94552.41;4876293;29;20045;-60
2022/10/09 01:00:26;;;;;;;10.65;4.97;;;;;;;6.72;nan;94551.47;4876521;29;20049;-60
2022/10/09 01:02:53;;;;;;;8.88;4.78;;;;;;;6.78;nan;94541.78;4875882;29;20057;-59
2022/10/09 01:05:41;;;;;;;8.52;4.65;;;;;;;6.86;nan;94531.72;4876475;29;20048;-59
2022/10/09 01:08:30;;;;;;;9.98;4.40;;;;;;;6.88;nan;94528.59;4875839;29;20052;-59
2022/10/09 01:11:10;;;;;;;8.33;4.40;;;;;;;6.92;nan;94526.66;4875867;29;20037;-59
2022/10/09 01:14:00;;;;;;;11.23;4.60;;;;;;;6.84;nan;94522.31;4876533;29;20048;-58
2022/10/09 01:16:32;;;;;;;11.75;5.53;;;;;;;6.73;nan;94525.72;4875130;29;20853;-61
2022/10/09 01:19:11;;;;;;;9.85;4.95;;;;;;;6.69;nan;94518.69;4880106;29;20037;-59
2022/10/09 01:21:47;;;;;;;10.38;4.60;;;;;;;6.58;nan;94519.38;4876220;29;20075;-59
2022/10/09 01:24:28;;;;;;;12.03;4.00;;;;;;;6.70;nan;94521.03;4875441;29;20848;-59
2022/10/09 01:27:02;;;;;;;8.52;4.45;;;;;;;6.65;nan;94518.66;4875825;29;20413;-59
2022/10/09 01:29:47;;;;;;;7.65;3.60;;;;;;;6.65;nan;94515.91;4876513;29;20345;-60
2022/10/09 01:32:20;;;;;;;9.65;3.90;;;;;;;6.82;nan;94513.72;4875455;29;20870;-59
2022/10/09 01:34:48;;;;;;;10.27;4.10;;;;;;;6.89;nan;94506.38;4875818;29;20045;-59
2022/10/09 01:37:17;;;;;;;8.53;4.30;;;;;;;6.99;nan;94515.81;4875927;29;20503;-59
2022/10/09 01:39:45;;;;;;;13.32;3.90;;;;;;;7.05;nan;94506.13;4876193;29;20045;-59
2022/10/09 01:42:14;;;;;;;10.30;3.75;;;;;;;7.07;nan;94505.75;4875080;29;20391;-59
2022/10/09 01:44:41;;;;;;;9.00;3.53;;;;;;;7.10;nan;94507.72;4876022;29;20083;-58
2022/10/09 01:47:17;;;;;;;9.25;3.90;;;;;;;7.30;nan;94502.78;4875492;29;20055;-62
2022/10/09 01:49:49;;;;;;;11.63;3.97;;;;;;;7.32;nan;94503.97;4876226;29;20044;-59
2022/10/09 01:52:36;;;;;;;9.10;3.58;;;;;;;7.22;nan;94501.16;4873710;29;21728;-58
2022/10/09 01:55:33;;;;;;;9.13;4.13;;;;;;;7.19;nan;94498.03;4875395;29;20055;-61
2022/10/09 01:58:40;;;;;;;11.30;4.63;;;;;;;7.36;nan;94485.69;4875713;29;20051;-61
2022/10/09 02:01:30;;;;;;;8.95;4.60;;;;;;;7.34;nan;94479.78;4859086;29;20486;-59
2022/10/09 02:03:59;;;;;;;9.37;4.60;;;;;;;7.36;nan;94493.88;4875574;29;20053;-62
2022/10/09 02:06:30;;;;;;;11.38;4.32;;;;;;;7.36;nan;94479.41;4875746;29;20053;-59
2022/10/09 02:08:58;;;;;;;10.07;4.60;;;;;;;7.36;nan;94480.22;4875111;29;20491;-59
2022/10/09 02:11:28;;;;;;;10.65;4.65;;;;;;;7.52;nan;94482.63;4875821;29;20053;-59
2022/10/09 02:13:55;;;;;;;10.60;4.75;;;;;;;7.53;nan;94483.44;4875133;29;20075;-59
2022/10/09 02:16:36;;;;;;;11.17;4.40;;;;;;;7.47;nan;94472.09;4875693;29;20053;-61
2022/10/09 02:19:24;;;;;;;11.48;4.40;;;;;;;7.56;nan;94469.78;4879425;29;20045;-59
2022/10/09 02:21:55;;;;;;;9.20;4.32;;;;;;;7.55;nan;94456.53;4875196;29;20055;-60
2022/10/09 02:24:23;;;;;;;11.52;4.68;;;;;;;7.49;nan;94458.06;4875630;29;20037;-59
2022/10/09 02:26:53;;;;;;;9.65;4.07;;;;;;;7.45;nan;94440.88;4876564;29;20045;-61
2022/10/09 02:29:20;;;;;;;10.93;4.60;;;;;;;7.47;nan;94471.31;4879307;29;20497;-61
2022/10/09 02:31:47;;;;;;;11.55;4.20;;;;;;;7.46;nan;94453.34;4879001;29;20450;-59
2022/10/09 02:34:19;;;;;;;10.93;4.57;;;;;;;7.48;nan;94459.22;4862992;29;20051;-59
2022/10/09 02:36:46;;;;;;;9.93;4.63;;;;;;;7.49;nan;94453.38;4878691;29;20063;-56
2022/10/09 02:39:13;;;;;;;10.98;5.00;;;;;;;7.51;nan;94456.50;4879293;29;20400;-59
2022/10/09 02:41:40;;;;;;;10.80;4.80;;;;;;;7.49;nan;94447.13;4879202;29;20051;-59
2022/10/09 02:44:07;;;;;;;11.88;4.70;;;;;;;7.42;nan;94456.06;4878958;29;20048;-58
2022/10/09 02:46:34;;;;;;;13.52;4.70;;;;;;;7.40;nan;94459.19;4878992;29;20075;-59
2022/10/09 02:49:01;;;;;;;12.55;4.50;;;;;;;7.38;nan;94449.78;4878202;29;20051;-59
2022/10/09 02:51:28;;;;;;;10.65;4.50;;;;;;;7.38;nan;94450.59;4878914;29;20049;-60
2022/10/09 02:53:55;;;;;;;12.53;4.50;;;;;;;7.30;nan;94451.69;4878210;29;20510;-59
2022/10/09 02:56:22;;;;;;;13.70;4.63;;;;;;;7.27;nan;94452.47;4878806;29;20049;-59
2022/10/09 02:58:49;;;;;;;9.43;4.60;;;;;;;7.27;nan;94446.22;4878277;29;20051;-59
2022/10/09 03:01:16;;;;;;;8.98;4.60;;;;;;;7.26;nan;94452.84;4878889;29;20045;-58
2022/10/09 03:03:43;;;;;;;10.02;4.82;;;;;;;7.26;nan;94450.09;4878866;29;20049;-58
2022/10/09 03:06:15;;;;;;;12.40;5.83;;;;;;;7.36;nan;94460.31;4878048;29;20044;-61
2022/10/09 03:08:45;;;;;;;9.85;4.63;;;;;;;7.37;nan;94448.22;4878173;29;20057;-59
2022/10/09 03:11:13;;;;;;;12.55;5.20;;;;;;;7.33;nan;94450.94;4877253;29;22200;-58
2022/10/09 03:13:40;;;;;;;11.73;4.90;;;;;;;7.29;nan;94450.13;4878788;29;20115;-60
2022/10/09 03:16:12;;;;;;;12.70;5.03;;;;;;;7.31;nan;94452.50;4861329;29;20049;-60
2022/10/09 03:18:39;;;;;;;12.33;4.67;;;;;;;7.28;nan;94448.56;4882597;29;20069;-59
2022/10/09 03:21:08;;;;;;;12.13;5.00;;;;;;;7.26;nan;94439.97;4878129;29;20057;-62
2022/10/09 03:23:35;;;;;;;11.48;5.07;;;;;;;7.21;nan;94451.25;4878665;29;20056;-59
2022/10/09 03:26:05;;;;;;;10.45;4.93;;;;;;;7.17;nan;94453.19;4878003;29;20503;-60
2022/10/09 03:28:35;;;;;;;10.23;4.70;;;;;;;7.16;nan;94449.69;4878600;29;20056;-58
2022/10/09 03:31:03;;;;;;;12.17;5.00;;;;;;;7.16;nan;94449.69;4877829;29;20498;-60
2022/10/09 03:33:30;;;;;;;10.68;4.97;;;;;;;7.16;nan;94452.41;4878206;29;20503;-59
2022/10/09 03:35:57;;;;;;;9.75;5.30;;;;;;;7.14;nan;94449.28;4877826;29;20495;-62
2022/10/09 03:38:24;;;;;;;12.30;5.00;;;;;;;7.25;nan;94457.53;4876241;29;20056;-58
2022/10/09 03:40:51;;;;;;;11.02;5.00;;;;;;;7.20;nan;94450.47;4877745;29;20057;-58
2022/10/09 03:43:18;;;;;;;13.67;5.60;;;;;;;7.21;nan;94448.53;4877967;29;20045;-59
2022/10/09 03:45:45;;;;;;;10.95;5.35;;;;;;;7.23;nan;94442.69;4878073;29;20079;-59
2022/10/09 03:48:12;;;;;;;12.48;5.00;;;;;;;7.17;nan;94445.00;4876112;29;20661;-59
2022/10/09 03:50:40;;;;;;;9.18;4.70;;;;;;;7.12;nan;94451.59;4877910;29;20049;-59
2022/10/09 03:53:09;;;;;;;13.10;5.30;;;;;;;7.06;nan;94446.88;4861197;29;20165;-59
2022/10/09 03:55:36;;;;;;;9.03;4.60;;;;;;;7.06;nan;94433.22;4877684;29;20060;-59
2022/10/09 03:58:03;;;;;;;9.75;4.65;;;;;;;6.99;nan;94433.97;4877401;29;20445;-60
2022/10/09 04:00:31;;;;;;;9.50;4.85;;;;;;;6.95;nan;94441.34;4877878;29;20406;-59
2022/10/09 04:02:57;;;;;;;9.35;5.00;;;;;;;6.96;nan;94449.16;4877438;29;20041;-59
2022/10/09 04:05:24;;;;;;;11.95;4.80;;;;;;;7.00;nan;94443.69;4877725;29;20104;-61
2022/10/09 04:07:51;;;;;;;11.23;4.77;;;;;;;7.01;nan;94437.09;4877003;29;20048;-58
2022/10/09 04:10:18;;;;;;;14.05;5.50;;;;;;;6.98;nan;94433.19;4877560;29;20045;-59
2022/10/09 04:12:45;;;;;;;14.40;5.78;;;;;;;6.98;nan;94440.56;4877658;29;20041;-59
2022/10/09 04:15:12;;;;;;;11.10;4.80;;;;;;;6.97;nan;94439.78;4860345;29;20813;-59
2022/10/09 04:17:39;;;;;;;12.40;4.40;;;;;;;6.96;nan;94434.72;4881515;29;20053;-59
2022/10/09 04:20:06;;;;;;;7.70;3.97;;;;;;;6.96;nan;94431.97;4877007;29;20048;-59
2022/10/09 04:22:33;;;;;;;8.82;4.60;;;;;;;6.94;nan;94426.94;4877283;29;20086;-59
2022/10/09 04:25:00;;;;;;;7.68;4.25;;;;;;;6.95;nan;94425.75;4876598;29;20486;-61
2022/10/09 04:27:26;;;;;;;9.20;3.90;;;;;;;6.93;nan;94421.84;4877463;29;20045;-59
2022/10/09 04:29:53;;;;;;;8.25;4.00;;;;;;;6.88;nan;94422.19;4876978;29;20378;-58
2022/10/09 04:32:20;;;;;;;9.20;4.03;;;;;;;6.82;nan;94420.97;4877236;29;20051;-58
2022/10/09 04:34:47;;;;;;;11.90;4.50;;;;;;;6.78;nan;94412.75;4860035;29;20041;-60
2022/10/09 04:37:14;;;;;;;8.32;4.00;;;;;;;6.80;nan;94419.41;4877010;29;20048;-59
2022/10/09 04:39:40;;;;;;;10.13;4.22;;;;;;;6.80;nan;94413.97;4877218;29;20057;-59
2022/10/09 04:42:07;;;;;;;14.13;4.70;;;;;;;6.85;nan;94425.69;4862534;29;20041;-58
2022/10/09 04:44:34;;;;;;;8.00;3.97;;;;;;;6.79;nan;94417.84;4877073;29;20056;-59
2022/10/09 04:47:01;;;;;;;8.95;3.78;;;;;;;6.86;nan;94402.69;4876431;29;20047;-60
2022/10/09 04:49:27;;;;;;;9.95;4.22;;;;;;;6.85;nan;94414.78;4876611;29;20048;-59
2022/10/09 04:51:54;;;;;;;9.43;3.70;;;;;;;6.75;nan;94399.88;4875724;29;20049;-58
2022/10/09 04:54:21;;;;;;;7.55;3.55;;;;;;;6.77;nan;94406.53;4876736;29;20041;-60
2022/10/09 04:56:48;;;;;;;9.20;3.80;;;;;;;6.76;nan;94415.09;4876517;29;20388;-56
2022/10/09 04:59:14;;;;;;;9.43;3.60;;;;;;;6.71;nan;94410.78;4876703;29;20380;-58
2022/10/09 05:01:41;;;;;;;10.10;3.70;;;;;;;6.70;nan;94400.22;4876752;29;20048;-60
2022/10/09 05:04:08;;;;;;;7.55;3.10;;;;;;;6.69;nan;94410.38;4876203;29;20406;-58
2022/10/09 05:06:35;;;;;;;8.15;3.50;;;;;;;6.67;nan;94403.72;4876565;29;20045;-58
2022/10/09 05:09:02;;;;;;;9.63;3.50;;;;;;;6.66;nan;94411.13;4875839;29;20049;-57
2022/10/09 05:11:29;;;;;;;8.13;3.67;;;;;;;6.68;nan;94406.09;4876657;29;20057;-57
2022/10/09 05:13:57;;;;;;;9.40;3.85;;;;;;;6.69;nan;94398.69;4875943;29;20049;-58
2022/10/09 05:16:26;;;;;;;7.93;3.58;;;;;;;6.64;nan;94405.28;4876426;29;20045;-60
2022/10/09 05:18:56;;;;;;;10.40;3.70;;;;;;;6.63;nan;94402.91;4881806;29;20053;-57
2022/10/09 05:21:24;;;;;;;10.37;3.80;;;;;;;6.53;nan;94399.72;4876324;29;20072;-58
2022/10/09 05:23:53;;;;;;;9.40;3.88;;;;;;;6.56;nan;94401.72;4876053;29;20060;-58
2022/10/09 05:26:22;;;;;;;9.50;3.25;;;;;;;6.61;nan;94403.28;4876388;29;20052;-57
2022/10/09 05:28:49;;;;;;;7.57;2.95;;;;;;;6.59;nan;94405.63;4875905;29;20049;-57
2022/10/09 05:31:27;;;;;;;6.97;3.25;;;;;;;6.62;nan;94398.63;4876047;29;20056;-58
2022/10/09 05:33:57;;;;;;;8.17;3.60;;;;;;;6.58;nan;94393.16;4867741;29;20059;-58
2022/10/09 05:36:24;;;;;;;7.45;3.25;;;;;;;6.63;nan;94392.78;4874023;29;20067;-57
2022/10/09 05:38:50;;;;;;;10.13;3.78;;;;;;;6.64;nan;94397.09;4875634;29;20040;-58
2022/10/09 05:41:18;;;;;;;7.38;3.25;;;;;;;6.52;nan;94394.63;4876020;29;20049;-59
2022/10/09 05:43:47;;;;;;;7.28;3.17;;;;;;;6.52;nan;94395.44;4876118;29;20057;-60
2022/10/09 05:46:15;;;;;;;7.70;2.97;;;;;;;6.55;nan;94399.34;4875088;29;21659;-57
2022/10/09 05:48:44;;;;;;;7.72;3.40;;;;;;;6.55;nan;94399.34;4876132;29;20070;-58
2022/10/09 05:51:22;;;;;;;8.98;3.83;;;;;;;6.59;nan;94406.38;4875489;29;20514;-58
2022/10/09 05:53:50;;;;;;;7.95;3.55;;;;;;;6.44;nan;94407.44;4873533;29;20107;-58
2022/10/09 05:56:20;;;;;;;7.72;3.50;;;;;;;6.38;nan;94407.00;4859481;29;20041;-60
2022/10/09 05:58:51;;;;;;;13.90;6.33;;;;;;;6.39;nan;94405.06;4875368;29;20049;-63
2022/10/09 06:01:19;;;;;;;9.10;3.90;;;;;;;6.55;nan;94404.81;4860699;29;20041;-59
2022/10/09 06:03:49;;;;;;;8.20;3.55;;;;;;;6.66;nan;94400.22;4881902;29;20491;-59
2022/10/09 06:06:17;;;;;;;8.25;3.47;;;;;;;6.74;nan;94403.75;4865850;29;20048;-59
2022/10/09 06:08:44;;;;;;;7.88;3.60;;;;;;;6.92;nan;94403.88;4882106;29;20055;-59
2022/10/09 06:11:19;;;;;;;8.37;4.00;;;;;;;7.00;nan;94408.22;4881027;29;20411;-59
2022/10/09 06:13:46;;;;;;;7.55;4.05;;;;;;;7.12;nan;94404.41;4882309;29;20064;-59
2022/10/09 06:16:14;;;;;;;9.38;3.75;;;;;;;7.08;nan;94409.06;4881227;29;20869;-63
2022/10/09 06:18:45;;;;;;;8.40;3.50;;;;;;;7.19;nan;94407.97;4888923;29;20486;-60
2022/10/09 06:21:15;;;;;;;8.10;3.78;;;;;;;7.33;nan;94411.94;4881287;29;20097;-59
2022/10/09 06:23:43;;;;;;;10.07;4.00;;;;;;;7.29;nan;94411.16;4868837;29;20514;-60
2022/10/09 06:26:12;;;;;;;11.50;4.30;;;;;;;7.34;nan;94410.75;4881544;29;20068;-61
2022/10/09 06:28:40;;;;;;;7.78;3.70;;;;;;;7.32;nan;94410.34;4881869;29;20056;-60
2022/10/09 06:31:11;;;;;;;8.73;3.90;;;;;;;7.42;nan;94412.34;4881713;29;20045;-59
2022/10/09 06:33:40;;;;;;;9.75;4.43;;;;;;;7.59;nan;94406.19;4881809;29;20053;-59
2022/10/09 06:36:10;;;;;;;10.20;4.23;;;;;;;7.69;nan;94409.38;4881405;29;20049;-59
2022/10/09 06:38:40;;;;;;;8.18;3.67;;;;;;;7.72;nan;94414.81;4881830;29;20049;-60
2022/10/09 06:41:26;;;;;;;8.65;3.95;;;;;;;7.89;nan;94410.59;4881299;29;20061;-60
2022/10/09 06:43:55;;;;;;;9.02;4.70;;;;;;;7.86;nan;94410.59;4881522;29;20249;-60
2022/10/09 06:46:29;;;;;;;6.97;3.40;;;;;;;8.08;nan;94408.69;4881721;29;20410;-61
2022/10/09 06:48:58;;;;;;;9.23;4.30;;;;;;;8.09;nan;94419.25;4881248;29;20060;-60
2022/10/09 06:51:29;;;;;;;9.55;4.20;;;;;;;8.19;nan;94417.72;4881767;29;20051;-59
2022/10/09 06:53:58;;;;;;;8.00;3.50;;;;;;;8.32;nan;94415.38;4881210;29;20045;-61
2022/10/09 06:56:27;;;;;;;7.40;3.50;;;;;;;8.38;nan;94414.59;4881612;29;20057;-62
2022/10/09 06:58:55;;;;;;;8.07;4.10;;;;;;;8.79;nan;94416.19;4881129;29;20439;-60
2022/10/09 07:01:25;;;;;;;10.17;4.80;;;;;;;8.88;nan;94415.81;4881577;29;20041;-59
2022/10/09 07:03:55;;;;;;;7.78;3.50;;;;;;;9.28;nan;94416.53;4881056;29;20049;-60
2022/10/09 07:06:24;;;;;;;7.47;3.70;;;;;;;10.02;nan;94411.97;4881428;29;20045;-60
2022/10/09 07:08:54;;;;;;;9.07;3.50;;;;;;;12.22;nan;94408.00;4880510;29;20057;-60
2022/10/09 07:11:26;;;;;;;13.30;5.95;;;;;;;13.31;nan;94411.44;4881501;29;20043;-60
2022/10/09 07:13:55;;;;;;;9.60;4.23;;;;;;;13.58;nan;94406.63;4878321;29;20600;-61
2022/10/09 07:16:27;;;;;;;6.75;3.10;;;;;;;14.34;nan;94407.84;4877242;29;20041;-63
2022/10/09 07:18:54;;;;;;;6.88;3.20;;;;;;;13.98;nan;94406.63;4885664;29;20049;-61
2022/10/09 07:21:22;;;;;;;6.35;3.28;;;;;;;14.51;nan;94397.63;4878373;29;20045;-62
2022/10/09 07:23:49;;;;;;;5.68;3.03;;;;;;;16.11;nan;94407.81;4861275;29;20053;-60
2022/10/09 07:26:22;;;;;;;6.03;2.90;;;;;;;15.79;nan;94403.94;4861652;29;20588;-62
2022/10/09 07:28:50;;;;;;;7.05;2.70;;;;;;;17.42;nan;94403.38;4877571;29;20056;-61
2022/10/09 07:31:17;;;;;;;6.85;3.28;;;;;;;17.82;nan;94406.34;4878318;29;20041;-58
2022/10/09 07:33:51;;;;;;;5.72;2.60;;;;;;;16.18;nan;94410.38;4878251;29;20053;-61
2022/10/09 07:36:18;;;;;;;8.15;3.80;;;;;;;18.55;nan;94400.50;4877325;29;20898;-61
2022/10/09 07:38:54;;;;;;;5.37;2.47;;;;;;;16.78;nan;94404.19;4876797;29;20502;-58
2022/10/09 07:41:23;;;;;;;5.28;2.47;;;;;;;17.10;nan;94399.66;4877212;29;20929;-59
2022/10/09 07:43:50;;;;;;;5.05;2.25;;;;;;;18.83;nan;94391.53;4876508;29;20051;-58
2022/10/09 07:46:19;;;;;;;7.32;2.83;;;;;;;18.65;nan;94393.00;4877871;29;20056;-59
2022/10/09 07:48:46;;;;;;;5.25;2.20;;;;;;;14.32;nan;94391.69;4877540;29;20075;-56
2022/10/09 07:51:20;;;;;;;4.80;2.43;;;;;;;14.78;nan;94389.88;4877940;29;20045;-58
2022/10/09 07:53:48;;;;;;;5.50;2.47;;;;;;;14.68;nan;94404.72;4877217;29;20040;-60
2022/10/09 07:56:17;;;;;;;6.43;2.38;;;;;;;14.76;nan;94399.81;4861094;29;20147;-60
2022/10/09 07:58:52;;;;;;;4.80;2.50;;;;;;;14.62;nan;94389.09;4877581;29;20061;-59
2022/10/09 08:01:19;;;;;;;4.95;2.22;;;;;;;16.82;nan;94398.59;4860548;29;21711;-58
2022/10/09 08:03:47;;;;;;;7.40;3.40;;;;;;;18.96;nan;94395.00;4877276;29;20059;-59
2022/10/09 08:06:16;;;;;;;6.57;2.90;;;;;;;20.51;nan;94384.38;4877667;29;20055;-59
2022/10/09 08:08:43;;;;;;;5.45;1.90;;;;;;;20.13;nan;94382.13;4877407;29;20057;-58
2022/10/09 08:11:13;;;;;;;4.72;2.20;;;;;;;21.52;nan;94372.00;4877019;29;20045;-59
2022/10/09 08:13:40;;;;;;;5.32;2.40;;;;;;;19.11;nan;94370.91;4877323;29;20044;-59
2022/10/09 08:16:07;;;;;;;5.00;2.20;;;;;;;19.51;nan;94375.63;4876752;29;20052;-61
2022/10/09 08:18:35;;;;;;;6.72;2.35;;;;;;;18.47;nan;94365.09;4886514;29;20401;-59
2022/10/09 08:21:16;;;;;;;4.93;2.80;;;;;;;20.50;nan;94370.88;4876860;29;20053;-59
2022/10/09 08:23:44;;;;;;;4.93;2.65;;;;;;;18.41;nan;94372.47;4877198;29;20060;-59
2022/10/09 08:26:16;;;;;;;5.70;2.72;;;;;;;19.22;nan;94372.50;4876789;29;20041;-60
2022/10/09 08:28:48;;;;;;;8.13;3.20;;;;;;;19.33;nan;94373.56;4877242;29;20061;-61
2022/10/09 08:31:16;;;;;;;6.18;2.92;;;;;;;21.05;nan;94379.06;4876487;29;20751;-61
2022/10/09 08:33:43;;;;;;;7.43;3.00;;;;;;;20.56;nan;94382.94;4842639;29;20673;-58
2022/10/09 08:36:14;;;;;;;8.05;4.00;;;;;;;17.88;nan;94364.91;4874875;29;20054;-59
2022/10/09 08:38:41;;;;;;;8.45;3.40;;;;;;;18.22;nan;94368.84;4876844;29;20045;-58
2022/10/09 08:41:42;;;;;;;5.80;3.00;;;;;;;19.87;nan;94364.97;4875910;29;20147;-58
2022/10/09 08:44:12;;;;;;;7.05;3.40;;;;;;;20.57;nan;94367.00;4854614;29;20053;-58
2022/10/09 08:47:10;;;;;;;7.63;3.40;;;;;;;19.32;nan;94374.06;4876438;29;20061;-58
2022/10/09 08:49:49;;;;;;;15.90;3.50;;;;;;;19.74;nan;94362.38;4875685;29;20721;-61
2022/10/09 08:52:50;;;;;;;7.85;3.60;;;;;;;19.05;nan;94358.84;4875876;29;20709;-61
2022/10/09 08:55:30;;;;;;;6.27;2.70;;;;;;;20.67;nan;94360.97;4876143;29;20368;-60
2022/10/09 08:58:03;;;;;;;17.48;3.47;;;;;;;19.41;nan;94357.34;4876300;29;20053;-58
2022/10/09 09:00:43;;;;;;;8.02;3.20;;;;;;;17.14;nan;94353.97;4876659;29;20053;-58
2022/10/09 09:03:34;;;;;;;7.43;3.30;;;;;;;16.00;nan;94363.03;4876222;29;20047;-58
2022/10/09 09:06:03;;;;;;;8.27;3.70;;;;;;;18.22;nan;94363.28;4876338;29;20136;-61
2022/10/09 09:08:34;;;;;;;6.97;3.67;;;;;;;19.71;nan;94354.94;4876483;29;20057;-62
2022/10/09 09:11:28;;;;;;;8.63;4.60;;;;;;;19.77;nan;94355.09;4875822;29;20479;-58
2022/10/09 09:14:19;;;;;;;8.43;4.63;;;;;;;20.08;nan;94354.88;4876221;29;20052;-62
2022/10/09 09:16:57;;;;;;;5.65;3.05;;;;;;;19.90;nan;94353.69;4876004;29;20049;-59
2022/10/09 09:19:33;;;;;;;7.43;2.83;;;;;;;18.26;nan;94355.59;4881536;29;20059;-58
2022/10/09 09:22:00;;;;;;;7.03;2.73;;;;;;;20.03;nan;94353.50;4874763;29;20045;-60
2022/10/09 09:24:50;;;;;;;4.88;2.75;;;;;;;19.58;nan;94348.69;4876198;29;20055;-60
2022/10/09 09:27:26;;;;;;;5.72;2.58;;;;;;;20.61;nan;94348.91;4875204;29;20340;-59
2022/10/09 09:30:05;;;;;;;5.05;2.40;;;;;;;20.15;nan;94341.41;4875606;29;20101;-59
2022/10/09 09:32:32;;;;;;;5.80;2.45;;;;;;;20.46;nan;94347.97;4863272;29;20057;-60
2022/10/09 09:35:15;;;;;;;5.57;2.00;;;;;;;21.27;nan;94345.31;4859114;29;20049;-62
2022/10/09 09:37:41;;;;;;;6.75;2.45;;;;;;;20.88;nan;94347.22;4875561;29;20045;-59
2022/10/09 09:40:16;;;;;;;6.38;2.47;;;;;;;19.85;nan;94345.19;4875650;29;20055;-59
2022/10/09 09:43:12;;;;;;;5.55;2.22;;;;;;;16.84;nan;94351.78;4875577;29;20057;-60
2022/10/09 09:45:39;;;;;;;5.97;2.50;;;;;;;16.61;nan;94339.81;4876197;29;20069;-61
2022/10/09 09:48:14;;;;;;;5.27;2.50;;;;;;;16.56;nan;94352.25;4875342;29;20380;-58
2022/10/09 09:50:42;;;;;;;6.32;2.03;;;;;;;16.87;nan;94342.59;4874721;29;20061;-58
2022/10/09 09:53:35;;;;;;;5.03;2.10;;;;;;;17.36;nan;94339.34;4874899;29;20817;-61
2022/10/09 09:56:03;;;;;;;4.65;2.20;;;;;;;16.76;nan;94337.34;4875051;29;20045;-61
2022/10/09 09:58:37;;;;;;;4.88;2.28;;;;;;;17.76;nan;94328.41;4875727;29;20406;-59
2022/10/09 10:01:05;;;;;;;5.30;2.20;;;;;;;15.45;nan;94338.06;4875230;29;20049;-58
2022/10/09 10:03:34;;;;;;;6.65;2.80;;;;;;;12.76;nan;94331.66;4875870;29;20136;-60
2022/10/09 10:06:01;;;;;;;4.22;2.22;;;;;;;14.07;nan;94331.53;4875266;29;20041;-58
2022/10/09 10:08:32;;;;;;;5.30;2.38;;;;;;;16.94;nan;94326.50;4874224;29;20061;-59
2022/10/09 10:11:05;;;;;;;4.78;2.40;;;;;;;17.14;nan;94323.47;4875166;29;20840;-58
2022/10/09 10:13:45;;;;;;;6.20;2.53;;;;;;;13.77;nan;94335.31;4859343;29;20144;-58
2022/10/09 10:16:29;;;;;;;4.38;2.13;;;;;;;15.86;nan;94320.72;4858078;29;20865;-58
2022/10/09 10:18:57;;;;;;;6.32;2.30;;;;;;;13.96;nan;94329.00;4881695;29;20049;-60
2022/10/09 10:21:24;;;;;;;4.45;2.10;;;;;;;16.22;nan;94322.44;4875376;29;20049;-58
2022/10/09 10:23:55;;;;;;;5.10;2.28;;;;;;;15.96;nan;94319.63;4875280;29;20122;-60
2022/10/09 10:26:54;;;;;;;7.63;2.03;;;;;;;16.66;nan;94319.88;4875540;29;20055;-59
2022/10/09 10:29:41;;;;;;;6.93;2.45;;;;;;;17.31;nan;94315.75;4874874;29;20917;-58
2022/10/09 10:32:33;;;;;;;6.00;2.20;;;;;;;19.42;nan;94302.47;4858737;29;20052;-58
2022/10/09 10:35:02;;;;;;;5.75;1.90;;;;;;;19.39;nan;94309.72;4875237;29;20061;-59
2022/10/09 10:37:52;;;;;;;4.40;2.00;;;;;;;20.29;nan;94306.53;4875222;29;20073;-59
2022/10/09 10:40:28;;;;;;;4.40;2.00;;;;;;;20.39;nan;94296.13;4874402;29;20675;-58
2022/10/09 10:43:03;;;;;;;5.90;1.83;;;;;;;20.52;nan;94298.69;4874899;29;20443;-59
2022/10/09 10:45:43;;;;;;;4.65;1.90;;;;;;;18.79;nan;94301.91;4875473;29;20045;-58
2022/10/09 10:48:14;;;;;;;4.80;2.10;;;;;;;17.06;nan;94283.31;4874896;29;20056;-60
2022/10/09 10:50:50;;;;;;;4.30;2.08;;;;;;;17.80;nan;94305.31;4879013;29;20052;-58
2022/10/09 10:53:37;;;;;;;5.50;1.97;;;;;;;18.94;nan;94283.44;4877710;29;20701;-59
2022/10/09 10:56:14;;;;;;;5.03;1.90;;;;;;;18.51;nan;94287.91;4878207;29;20049;-59
2022/10/09 10:59:13;;;;;;;4.00;1.80;;;;;;;17.54;nan;94291.56;4878610;29;20047;-61
2022/10/09 11:01:58;;;;;;;4.45;1.70;;;;;;;19.86;nan;94291.81;4848895;29;20638;-58
2022/10/09 11:04:52;;;;;;;6.03;1.75;;;;;;;19.68;nan;94302.91;4877515;29;20903;-59
2022/10/09 11:07:28;;;;;;;5.23;1.90;;;;;;;18.96;nan;94292.09;4877520;29;20390;-60
2022/10/09 11:10:08;;;;;;;3.90;2.17;;;;;;;14.50;nan;94293.88;4878071;29;20049;-59
2022/10/09 11:12:58;;;;;;;6.10;2.70;;;;;;;18.43;nan;94279.13;4878162;29;20080;-59
2022/10/09 11:15:47;;;;;;;4.90;2.13;;;;;;;17.48;nan;94283.03;4877103;29;20693;-58
2022/10/09 11:18:32;;;;;;;4.20;1.92;;;;;;;17.34;nan;94284.34;4883920;29;22204;-58
2022/10/09 11:21:10;;;;;;;6.00;3.33;;;;;;;17.24;nan;94290.25;4878093;29;20053;-58
2022/10/09 11:23:55;;;;;;;4.45;2.10;;;;;;;16.77;nan;94277.94;4878073;29;20376;-58
2022/10/09 11:26:37;;;;;;;4.28;1.90;;;;;;;15.68;nan;94290.00;4876319;29;20061;-59
2022/10/09 11:29:12;;;;;;;3.92;1.83;;;;;;;15.92;nan;94279.44;4877933;29;20049;-58
2022/10/09 11:31:47;;;;;;;4.50;1.90;;;;;;;17.13;nan;94260.13;4878515;29;20051;-58
2022/10/09 11:34:36;;;;;;;3.83;1.70;;;;;;;18.50;nan;94269.72;4877317;29;20436;-59
2022/10/09 11:37:10;;;;;;;3.53;2.20;;;;;;;17.93;nan;94267.94;4877587;29;20045;-58
2022/10/09 11:39:38;;;;;;;3.42;1.88;;;;;;;16.62;nan;94263.00;4877909;29;20049;-61
2022/10/09 11:42:07;;;;;;;3.80;2.00;;;;;;;15.17;nan;94265.72;4877696;29;20071;-58
2022/10/09 11:45:06;;;;;;;5.53;2.10;;;;;;;16.57;nan;94253.25;4877987;29;20723;-60
2022/10/09 11:47:47;;;;;;;4.73;2.00;;;;;;;16.27;nan;94265.72;4877036;29;20676;-58
2022/10/09 11:50:56;;;;;;;5.15;2.10;;;;;;;15.07;nan;94269.56;4877072;29;20635;-58
2022/10/09 11:53:27;;;;;;;5.38;2.20;;;;;;;15.80;nan;94252.53;4818813;29;20463;-60
2022/10/09 11:56:27;;;;;;;5.35;2.42;;;;;;;16.23;nan;94251.19;4818754;29;20054;-58
2022/10/09 11:59:00;;;;;;;6.65;2.50;;;;;;;14.38;nan;94253.91;4815060;29;20067;-58
2022/10/09 12:01:40;;;;;;;3.97;2.10;;;;;;;14.60;nan;94254.19;4869054;29;20045;-60
2022/10/09 12:04:14;;;;;;;5.65;2.80;;;;;;;13.91;nan;94248.72;4863763;29;20045;-58
2022/10/09 12:06:56;;;;;;;5.53;2.70;;;;;;;14.14;nan;94251.31;4876795;29;20483;-60
2022/10/09 12:09:46;;;;;;;5.65;2.50;;;;;;;14.49;nan;94242.63;4876652;29;20519;-61
2022/10/09 12:12:15;;;;;;;5.05;2.80;;;;;;;13.94;nan;94243.13;4875690;29;20634;-60
2022/10/09 12:14:45;;;;;;;6.40;2.57;;;;;;;15.00;nan;94248.41;4877280;29;20045;-62
2022/10/09 12:17:21;;;;;;;4.03;2.38;;;;;;;16.16;nan;94235.59;4879837;29;20383;-62
2022/10/09 12:20:16;;;;;;;7.72;3.30;;;;;;;14.99;nan;94238.59;4878420;29;20072;-62